Latest Weather Observations for Adelaide Airport

IDS60901

Issued at 5:51 pm CDT Friday 6 March 2015 (issued every 10 minutes, with the page automatically refreshed every 10 minutes)

About weather observations | Map of Adelaide area stations | Latest observations for Adelaide area | Other Formats
Station Details ID: 023034 Name: ADELAIDE AIRPORT Lat: -34.95 Lon: 138.52 Height: 2.0 m
Data from the previous 72 hours. | See also: Recent months at Adelaide Airport
Date/Time
CDT
Tmp

°C
App
Tmp
°C
Dew
Point
°C
Rel
Hum
%
Delta-T

°C
Wind Press
QNH
hPa
Press
MSL
hPa
Rain
since
9 am
mm
Dir
 
Spd
km/h
Gust
km/h
Spd
kts
Gust
kts
06/05:30pm 20.8 16.4 11.6 55 5.1 SW 26 33 14 18 1015.9 - 0.0
06/05:00pm 20.9 15.9 11.1 53 5.4 WSW 28 35 15 19 1016.0 - 0.0
06/04:30pm 21.3 16.3 10.9 51 5.7 SW 28 33 15 18 1016.2 - 0.0
06/04:00pm 20.8 15.9 10.0 50 5.8 SW 26 35 14 19 1016.4 - 0.0
06/03:30pm 20.9 15.8 10.6 51 5.6 SW 28 35 15 19 1016.8 - 0.0
06/03:00pm 21.2 16.0 10.3 49 5.9 SW 28 33 15 18 1017.1 1017.1 0.0
06/02:30pm 21.8 16.3 10.7 49 6.1 SW 30 35 16 19 1017.6 - 0.0
06/02:00pm 21.5 16.2 10.0 48 6.2 SW 28 35 15 19 1017.8 - 0.0
06/01:30pm 21.3 16.2 10.5 50 5.9 SW 28 37 15 20 1018.2 - 0.0
06/01:00pm 21.5 15.7 10.7 50 5.9 SW 32 39 17 21 1018.6 - 0.0
06/12:30pm 20.3 15.0 11.2 56 5.0 SW 30 37 16 20 1018.9 - 0.0
06/12:00pm 19.9 15.6 10.9 56 4.9 SSW 24 33 13 18 1019.2 1019.2 0.0
06/11:30am 19.6 15.8 11.2 58 4.6 SW 22 30 12 16 1019.4 - 0.0
06/11:00am 18.9 15.4 11.0 60 4.3 SSW 20 26 11 14 1019.7 - 0.0
06/10:30am 18.6 15.2 11.2 62 4.0 SSW 20 32 11 17 1019.6 - 0.0
06/10:00am 17.9 13.8 11.3 65 3.6 SSW 24 32 13 17 1019.4 - 0.0
06/08:30am 17.3 13.8 10.8 65 3.5 SW 20 28 11 15 1019.5 - 0.0
06/08:00am 17.0 12.7 10.8 67 3.3 SW 24 30 13 16 1019.4 - 0.0
06/07:30am 16.7 13.0 10.3 66 3.4 SSW 20 30 11 16 1019.2 - 0.0
06/07:00am 16.6 12.4 9.7 63 3.6 SSW 22 30 12 16 1019.1 - 0.0
06/06:30am 16.4 12.4 9.2 62 3.7 SSW 20 30 11 16 1019.1 - 0.0
06/05:30am 16.4 11.8 9.7 64 3.5 SW 24 32 13 17 1019.0 - 0.0
06/05:00am 16.2 11.8 8.8 61 3.8 SW 22 30 12 16 1019.1 - 0.0
06/04:30am 16.2 11.2 9.4 64 3.5 SW 26 33 14 18 1019.2 - 0.0
06/04:00am 16.4 12.7 9.5 63 3.6 SW 19 30 10 16 1019.0 - 0.0
06/03:30am 16.4 11.7 9.2 62 3.7 SW 24 33 13 18 1019.4 - 0.0
06/03:00am 16.3 15.3 8.9 61 3.8 S 4 11 2 6 1019.6 1019.6 0.0
06/02:30am 14.8 12.3 8.2 64 3.3 SSE 11 13 6 7 1020.2 - 0.0
06/02:00am 14.9 12.0 8.1 64 3.4 SSE 13 17 7 9 1020.7 - 0.0
06/01:30am 14.8 11.8 7.7 62 3.5 S 13 17 7 9 1021.1 - 0.0
06/01:00am 14.9 11.5 7.6 61 3.6 S 15 20 8 11 1021.3 - 0.0
06/12:30am 14.2 11.2 7.5 64 3.3 SSE 13 17 7 9 1021.4 - 0.0
 
Date/Time
CDT
Tmp

°C
App
Tmp
°C
Dew
Point
°C
Rel
Hum
%
Delta-T

°C
Wind Press
QNH
hPa
Press
MSL
hPa
Rain
since
9 am
mm
Dir
 
Spd
km/h
Gust
km/h
Spd
kts
Gust
kts
05/11:30pm 14.1 11.0 7.3 63 3.3 SSE 13 17 7 9 1021.7 - 0.0
05/10:30pm 14.8 12.0 6.8 58 3.9 S 11 17 6 9 1022.2 - 0.0
05/10:00pm 15.2 11.9 6.5 56 4.2 S 13 17 7 9 1022.3 - 0.0
05/09:30pm 15.8 12.5 6.3 53 4.6 S 13 19 7 10 1022.2 - 0.0
05/09:00pm 16.2 11.7 6.3 52 4.8 S 19 24 10 13 1021.7 1021.7 0.0
05/08:30pm 17.0 12.4 5.6 47 5.5 S 19 26 10 14 1021.5 - 0.0
05/08:00pm 17.9 13.7 5.5 44 6.0 S 17 26 9 14 1021.4 - 0.0
05/07:30pm 18.4 12.9 5.9 44 6.1 SSW 24 33 13 18 1021.2 - 0.0
05/07:00pm 19.0 13.8 7.3 46 5.9 SSW 24 30 13 16 1020.8 - 0.0
05/06:30pm 19.4 13.3 6.8 44 6.3 SSW 28 37 15 20 1020.7 - 0.0
05/05:30pm 19.5 12.2 7.0 44 6.3 SW 35 46 19 25 1020.6 - 0.0
05/05:00pm 19.8 12.6 7.7 45 6.2 SW 35 46 19 25 1020.6 - 0.0
05/04:30pm 19.9 12.4 6.5 41 6.7 SW 35 41 19 22 1020.7 - 0.0
05/04:00pm 20.1 12.6 6.5 41 6.8 SW 35 44 19 24 1020.9 - 0.0
05/03:30pm 19.8 12.1 7.2 44 6.4 SW 37 44 20 24 1021.1 - 0.0
05/03:00pm 20.4 13.1 7.2 42 6.7 SW 35 44 19 24 1021.5 1021.5 0.0
05/02:30pm 19.9 12.4 6.5 41 6.7 SW 35 46 19 25 1021.8 - 0.0
05/02:00pm 20.5 13.0 6.3 39 7.1 SW 35 41 19 22 1021.9 - 0.0
05/01:30pm 20.6 16.1 6.2 39 7.2 SSW 19 28 10 15 1022.0 - 0.0
05/01:00pm 21.2 16.2 4.5 33 8.1 SSW 20 30 11 16 1022.4 - 0.0
05/12:30pm 19.5 14.9 3.9 35 7.4 SE 17 28 9 15 1022.7 - 0.0
05/12:00pm 20.8 14.3 2.9 30 8.4 S 26 41 14 22 1023.2 1023.2 0.0
05/11:30am 20.1 14.3 4.5 36 7.5 SSE 24 35 13 19 1023.5 - 0.0
05/11:00am 19.1 14.1 4.4 38 7.0 S 20 30 11 16 1023.4 - 0.0
05/10:30am 18.9 13.7 3.8 36 7.1 SSE 20 32 11 17 1023.5 - 0.0
05/10:00am 18.3 13.3 4.4 39 6.6 SE 20 28 11 15 1023.2 - 0.0
05/09:30am 17.8 11.6 4.5 41 6.3 SE 26 32 14 17 1022.8 - 0.0
05/09:00am 17.0 12.4 5.6 47 5.5 S 19 28 10 15 1022.8 1022.8 0.0
05/08:30am 16.8 12.5 5.3 46 5.5 S 17 24 9 13 1022.1 - 0.0
05/08:00am 16.1 11.4 6.2 52 4.8 S 20 26 11 14 1021.7 - 0.0
05/07:30am 16.1 11.3 7.4 56 4.3 S 22 30 12 16 1021.5 - 0.0
05/07:00am 16.3 13.0 8.2 58 4.1 S 15 19 8 10 1021.3 - 0.0
05/06:30am 16.5 12.2 7.7 56 4.4 S 20 28 11 15 1020.6 - 0.0
05/06:00am 16.7 13.5 7.0 52 4.8 S 13 20 7 11 1020.2 1020.2 0.0
05/05:30am 16.9 12.9 6.5 50 5.1 S 17 24 9 13 1020.1 - 0.0
05/05:00am 16.8 12.1 7.6 54 4.6 S 22 30 12 16 1020.0 - 0.0
05/04:30am 17.2 11.9 8.6 57 4.4 S 26 39 14 21 1019.6 - 0.0
05/04:00am 17.6 11.6 8.7 56 4.6 S 30 37 16 20 1019.4 - 0.0
05/03:30am 18.0 11.9 10.3 60 4.1 S 33 44 18 24 1019.3 - 0.0
05/03:00am 18.1 14.0 11.5 65 3.6 S 24 33 13 18 1018.9 1018.9 0.0
05/02:30am 18.1 14.2 13.3 73 2.7 S 26 35 14 19 1019.2 - 0.0
05/02:13am 18.1 12.6 12.5 70 3.1 SSW 33 52 18 28 1019.2 - 0.0
05/02:00am 18.6 13.2 12.3 67 3.5 SSW 32 41 17 22 1019.0 - 0.0
05/01:30am 18.2 11.6 12.6 70 3.1 SSW 39 56 21 30 1019.5 - 0.0
05/01:00am 19.0 13.1 13.5 70 3.1 SW 37 48 20 26 1019.0 - 0.0
05/12:30am 18.8 13.5 14.1 74 2.7 WSW 35 50 19 27 1019.0 - 0.0
05/12:00am 19.5 14.0 12.3 63 4.0 SW 33 48 18 26 1018.9 1018.9 0.0
 
Date/Time
CDT
Tmp

°C
App
Tmp
°C
Dew
Point
°C
Rel
Hum
%
Delta-T

°C
Wind Press
QNH
hPa
Press
MSL
hPa
Rain
since
9 am
mm
Dir
 
Spd
km/h
Gust
km/h
Spd
kts
Gust
kts
04/11:30pm 18.8 14.3 13.9 73 2.8 SW 30 39 16 21 1018.7 - 0.0
04/11:00pm 19.1 14.6 13.9 72 3.0 WSW 30 35 16 19 1018.9 - 0.0
04/10:30pm 19.3 13.9 12.3 64 3.9 WSW 32 39 17 21 1019.2 - 0.0
04/10:00pm 18.7 13.0 14.2 75 2.6 WSW 37 46 20 25 1018.9 - 0.0
04/09:30pm 19.4 13.8 13.2 67 3.5 WSW 35 48 19 26 1018.4 - 0.0
04/09:00pm 19.5 13.0 11.7 60 4.3 WSW 37 50 20 27 1018.0 1018.0 0.0
04/08:30pm 19.5 13.7 12.7 65 3.8 WSW 35 43 19 23 1017.8 - 0.0
04/08:00pm 19.5 13.6 12.5 64 3.9 WSW 35 44 19 24 1017.4 - 0.0
04/07:30pm 19.6 13.9 11.8 60 4.3 WSW 33 41 18 22 1017.4 - 0.0
04/07:00pm 20.5 15.5 12.1 58 4.7 WSW 30 35 16 19 1017.1 - 0.0
04/06:30pm 20.8 14.5 10.9 53 5.4 WSW 35 41 19 22 1017.2 - 0.0
04/06:00pm 21.2 16.7 12.7 58 4.8 SW 28 33 15 18 1017.0 1017.0 0.0
04/05:30pm 21.7 16.7 12.1 54 5.4 SW 30 37 16 20 1016.9 - 0.0
04/05:00pm 21.4 16.2 10.4 49 6.0 SW 28 35 15 19 1017.0 - 0.0
04/04:30pm 21.6 17.5 12.8 57 5.0 SW 26 32 14 17 1017.1 - 0.0
04/04:00pm 21.4 19.1 11.9 54 5.3 SW 15 30 8 16 1017.2 - 0.0
04/03:30pm 20.6 17.1 10.2 51 5.6 SW 19 26 10 14 1017.6 - 0.0
04/03:00pm 21.0 17.3 9.6 48 6.1 SW 19 30 10 16 1018.1 1018.1 0.0
04/02:30pm 20.5 16.0 8.7 46 6.2 SW 22 30 12 16 1018.4 - 0.0
04/02:00pm 20.4 16.3 8.5 46 6.2 SSW 20 30 11 16 1018.6 - 0.0
04/01:30pm 20.6 16.2 8.8 46 6.2 SSW 22 33 12 18 1018.9 - 0.0
04/01:00pm 21.1 15.9 8.8 45 6.5 SW 26 33 14 18 1019.0 - 0.0
04/12:30pm 20.5 15.3 8.7 46 6.2 WSW 26 32 14 17 1019.4 - 0.0
04/12:00pm 19.9 15.2 9.1 49 5.7 SW 24 32 13 17 1019.5 1019.5 0.0
04/11:30am 19.7 16.1 9.7 52 5.3 WSW 19 30 10 16 1019.7 - 0.0
04/11:00am 20.5 16.9 8.2 45 6.4 W 17 24 9 13 1019.5 - 0.0
04/10:30am 19.9 16.9 9.1 49 5.7 WSW 15 20 8 11 1019.6 - 0.0
04/10:00am 20.0 16.6 9.2 49 5.7 SW 17 24 9 13 1019.4 - 0.0
04/09:30am 17.9 16.6 9.9 59 4.2 SW 7 11 4 6 1019.4 - 0.0
04/09:00am 17.5 16.2 9.9 61 4.0 SE 7 13 4 7 1019.1 1019.1 0.0
04/08:30am 16.6 14.9 9.9 64 3.5 E 9 11 5 6 1019.1 - 0.0
04/08:00am 15.5 14.0 10.4 71 2.7 ENE 9 11 5 6 1019.0 - 0.0
04/07:30am 13.6 11.9 9.9 78 1.9 E 9 9 5 5 1018.5 - 0.0
04/07:00am 13.6 11.9 9.7 77 2.0 E 9 9 5 5 1018.2 - 0.0
04/06:30am 14.1 12.4 10.0 76 2.1 ESE 9 11 5 6 1018.2 - 0.0
04/06:00am 13.2 11.5 9.9 80 1.7 SSE 9 13 5 7 1017.9 1017.9 0.0
04/05:30am 13.0 11.3 9.9 81 1.6 SSE 9 11 5 6 1017.9 - 0.0
04/05:00am 13.2 11.5 9.9 80 1.7 S 9 9 5 5 1017.8 - 0.0
04/04:30am 13.8 12.2 10.1 78 1.9 S 9 11 5 6 1017.6 - 0.0
04/04:00am 13.8 11.8 10.1 78 1.9 SSE 11 13 6 7 1017.6 - 0.0
04/03:30am 14.7 13.2 10.5 76 2.2 S 9 11 5 6 1017.9 - 0.0
04/03:00am 14.9 13.8 10.5 75 2.3 S 7 9 4 5 1018.2 1018.2 0.0
04/02:30am 14.9 13.0 10.5 75 2.3 S 11 13 6 7 1018.4 - 0.0
04/02:00am 15.4 13.9 10.7 73 2.5 S 9 11 5 6 1018.9 - 0.0
04/01:30am 15.2 13.7 10.6 74 2.4 S 9 13 5 7 1018.9 - 0.0
04/01:00am 15.9 13.7 10.8 71 2.7 SSW 13 15 7 8 1018.8 - 0.0
04/12:30am 15.8 13.6 10.9 72 2.6 S 13 17 7 9 1018.9 - 0.0
04/12:00am 16.3 13.9 11.3 72 2.7 S 15 22 8 12 1019.0 1019.0 0.0
 
Date/Time
CDT
Tmp

°C
App
Tmp
°C
Dew
Point
°C
Rel
Hum
%
Delta-T

°C
Wind Press
QNH
hPa
Press
MSL
hPa
Rain
since
9 am
mm
Dir
 
Spd
km/h
Gust
km/h
Spd
kts
Gust
kts
03/11:30pm 16.9 13.7 11.3 69 3.0 SSE 19 24 10 13 1019.1 - 0.0
03/11:00pm 17.2 14.0 11.1 67 3.3 SSE 19 24 10 13 1019.1 - 0.0
03/10:30pm 17.4 13.5 10.7 65 3.6 SSE 22 32 12 17 1018.9 - 0.0
03/10:00pm 17.5 13.8 10.3 62 3.8 SSE 20 26 11 14 1018.7 - 0.0
03/09:30pm 18.0 14.1 9.6 58 4.4 SSE 20 30 11 16 1018.4 - 0.0
03/09:00pm 18.5 13.0 9.3 55 4.8 SSE 28 35 15 19 1018.1 1018.1 0.0
03/08:30pm 19.4 14.5 8.6 49 5.6 S 24 30 13 16 1017.5 - 0.0
03/08:00pm 20.2 15.7 8.5 47 6.1 S 22 30 12 16 1017.0 - 0.0
03/07:30pm 21.6 16.3 8.5 43 6.9 S 26 33 14 18 1016.5 - 0.0
03/07:00pm 22.9 18.2 7.8 38 7.9 S 22 32 12 17 1016.1 - 0.0
03/06:30pm 23.9 18.6 6.9 33 8.8 S 24 32 13 17 1015.7 - 0.0
03/06:00pm 24.9 20.5 7.4 32 9.2 SSE 20 26 11 14 1015.5 1015.5 0.0

Latest Capital City Observations: Canberra | Sydney | Melbourne | Brisbane | Adelaide | Perth | Hobart | Darwin

Other Formats:

Comma delimited format used in spreadsheet applications
http://www.bom.gov.au/fwo/IDS60901/IDS60901.94672.axf

JavaScript Object Notation format (JSON) in row-major order
http://www.bom.gov.au/fwo/IDS60901/IDS60901.94672.json